createdAt,value
2022-07-25T00:01:57.146Z,75476.59
2022-07-25T00:04:24.502Z,75474.69
2022-07-25T00:06:51.494Z,75480.47
2022-07-25T00:09:18.229Z,75484.31
2022-07-25T00:11:45.183Z,75480.47
2022-07-25T00:14:11.995Z,75488.16
2022-07-25T00:16:39.467Z,75486.25
2022-07-25T00:19:06.290Z,75499.72
2022-07-25T00:21:33.027Z,75503.59
2022-07-25T00:24:00.043Z,75511.28
2022-07-25T00:26:26.858Z,75520.91
2022-07-25T00:28:56.609Z,75542.09
2022-07-25T00:31:23.612Z,75561.38
2022-07-25T00:33:50.581Z,75588.34
2022-07-25T00:36:17.416Z,75607.59
2022-07-25T00:38:44.094Z,75613.38
2022-07-25T00:41:10.802Z,75603.75
2022-07-25T00:43:37.904Z,75613.38
2022-07-25T00:46:04.848Z,75605.69
2022-07-25T00:48:31.620Z,75609.53
2022-07-25T00:51:00.047Z,75611.47
2022-07-25T00:53:27.005Z,75623.03
2022-07-25T00:55:54.535Z,75632.66
2022-07-25T00:58:21.241Z,75638.44
2022-07-25T01:00:48.137Z,75650.00
2022-07-25T01:03:15.655Z,75650.00
2022-07-25T01:05:42.732Z,75650.00
2022-07-25T01:08:09.904Z,75653.84
2022-07-25T01:10:37.673Z,75650.00
2022-07-25T01:13:04.519Z,75661.56
2022-07-25T01:15:31.888Z,75665.41
2022-07-25T01:17:58.699Z,75671.19
2022-07-25T01:20:28.618Z,75676.97
2022-07-25T01:22:55.598Z,75671.19
2022-07-25T01:25:22.536Z,75669.25
2022-07-25T01:27:55.253Z,75669.25
2022-07-25T01:30:25.107Z,75669.25
2022-07-25T01:32:52.705Z,75671.19
2022-07-25T01:35:19.955Z,75676.97
2022-07-25T01:37:46.873Z,75669.25
2022-07-25T01:40:14.749Z,75673.09
2022-07-25T01:42:44.979Z,75675.03
2022-07-25T01:45:13.138Z,75673.09
2022-07-25T01:47:40.754Z,75680.81
2022-07-25T01:50:08.212Z,75684.66
2022-07-25T01:52:36.697Z,75692.38
2022-07-25T01:55:04.089Z,75700.09
2022-07-25T01:57:32.956Z,75707.78
2022-07-25T02:00:00.169Z,75703.94
2022-07-25T02:02:27.038Z,75711.63
2022-07-25T02:04:53.986Z,75715.50
2022-07-25T02:07:21.053Z,75711.63
2022-07-25T02:09:47.797Z,75719.34
2022-07-25T02:12:14.607Z,75719.34
2022-07-25T02:14:41.490Z,75715.50
2022-07-25T02:17:08.707Z,75719.34
2022-07-25T02:19:36.519Z,75725.13
2022-07-25T02:22:03.640Z,75727.06
2022-07-25T02:24:30.400Z,75730.91
2022-07-25T02:26:57.207Z,75734.75
2022-07-25T02:29:24.546Z,75734.75
2022-07-25T02:31:53.049Z,75746.31
2022-07-25T02:34:19.830Z,75742.47
2022-07-25T02:36:46.724Z,75754.03
2022-07-25T02:39:13.584Z,75755.94
2022-07-25T02:41:40.351Z,75750.16
2022-07-25T02:44:07.836Z,75748.25
2022-07-25T02:46:35.015Z,75754.03
2022-07-25T02:49:02.085Z,75750.16
2022-07-25T02:51:29.375Z,75750.16
2022-07-25T02:53:58.165Z,75754.03
2022-07-25T02:56:25.928Z,75754.03
2022-07-25T02:58:53.669Z,75757.88
2022-07-25T03:01:20.428Z,75763.66
2022-07-25T03:03:47.221Z,75775.22
2022-07-25T03:06:14.004Z,75779.06
2022-07-25T03:08:40.740Z,75779.06
2022-07-25T03:11:07.547Z,75784.84
2022-07-25T03:13:34.296Z,75788.69
2022-07-25T03:16:01.109Z,75792.56
2022-07-25T03:18:27.833Z,75796.41
2022-07-25T03:20:54.562Z,75802.19
2022-07-25T03:23:21.549Z,75802.19
2022-07-25T03:25:48.391Z,75806.03
2022-07-25T03:28:15.144Z,75811.81
2022-07-25T03:30:41.880Z,75811.81
2022-07-25T03:33:08.604Z,75815.69
2022-07-25T03:35:37.830Z,75806.03
2022-07-25T03:38:04.526Z,75798.34
2022-07-25T03:40:31.774Z,75782.91
2022-07-25T03:42:58.559Z,75757.88
2022-07-25T03:45:25.455Z,75696.22
2022-07-25T03:47:52.205Z,75621.09
2022-07-25T03:50:19.085Z,75549.81
2022-07-25T03:52:45.774Z,75476.59
2022-07-25T03:55:12.729Z,75407.25
2022-07-25T03:57:39.904Z,75364.88
2022-07-25T04:00:09.564Z,75318.66
2022-07-25T04:02:37.885Z,75257.00
2022-07-25T04:05:06.804Z,75095.19
2022-07-25T04:07:33.877Z,74950.75
2022-07-25T04:10:00.607Z,74802.44
2022-07-25T04:12:27.652Z,74704.22
2022-07-25T04:14:54.534Z,74675.31
2022-07-25T04:17:21.355Z,74498.13
2022-07-25T04:19:48.290Z,74355.63
2022-07-25T04:22:15.883Z,74405.69
2022-07-25T04:24:42.624Z,74297.84
2022-07-25T04:27:09.401Z,74238.16
2022-07-25T04:29:36.150Z,74178.47
2022-07-25T04:32:02.905Z,74228.53
2022-07-25T04:34:29.802Z,74143.78
2022-07-25T04:36:56.598Z,74155.34
2022-07-25T04:39:23.333Z,74126.47
2022-07-25T04:41:50.079Z,73974.34
2022-07-25T04:44:16.817Z,74001.28
2022-07-25T04:46:43.571Z,73860.72
2022-07-25T04:49:10.414Z,73997.44
2022-07-25T04:51:37.183Z,74010.94
2022-07-25T04:54:04.951Z,74080.25
2022-07-25T04:56:31.914Z,74128.38
2022-07-25T04:59:04.720Z,73997.44
2022-07-25T05:01:34.065Z,73720.19
2022-07-25T05:04:01.120Z,73708.63
2022-07-25T05:06:27.923Z,73916.56
2022-07-25T05:08:54.819Z,73679.75
2022-07-25T05:11:21.654Z,73889.63
2022-07-25T05:13:48.426Z,73639.31
2022-07-25T05:16:15.531Z,73566.16
2022-07-25T05:18:42.597Z,73543.03
2022-07-25T05:21:12.815Z,73833.78
2022-07-25T05:23:40.334Z,73883.84
2022-07-25T05:26:07.030Z,73571.91
2022-07-25T05:28:34.069Z,73666.25
2022-07-25T05:31:01.373Z,73531.50
2022-07-25T05:33:28.244Z,73670.13
2022-07-25T05:35:54.990Z,73618.13
2022-07-25T05:38:21.920Z,73570.00
2022-07-25T05:40:52.075Z,73670.13
2022-07-25T05:43:19.262Z,73450.63
2022-07-25T05:45:47.511Z,73664.34
2022-07-25T05:48:15.703Z,73184.94
2022-07-25T05:50:42.582Z,73181.09
2022-07-25T05:53:09.421Z,73054.03
2022-07-25T05:55:40.781Z,73090.63
2022-07-25T05:58:09.482Z,73054.03
2022-07-25T06:00:36.823Z,73029.03
2022-07-25T06:03:04.091Z,72992.44
2022-07-25T06:05:31.078Z,72915.44
2022-07-25T06:07:57.825Z,72934.69
2022-07-25T06:10:25.222Z,73337.03
2022-07-25T06:12:51.953Z,73242.69
2022-07-25T06:15:22.728Z,73365.91
2022-07-25T06:17:53.794Z,73138.75
2022-07-25T06:20:20.723Z,73131.03
2022-07-25T06:22:50.855Z,73312.00
2022-07-25T06:25:17.945Z,73054.03
2022-07-25T06:27:44.916Z,73115.66
2022-07-25T06:30:20.042Z,72907.75
2022-07-25T06:32:49.373Z,72850.00
2022-07-25T06:35:17.378Z,73192.66
2022-07-25T06:37:44.128Z,73096.41
2022-07-25T06:40:11.281Z,73138.75
2022-07-25T06:42:42.331Z,73032.88
2022-07-25T06:45:11.003Z,72942.41
2022-07-25T06:47:39.336Z,72982.81
2022-07-25T06:50:08.472Z,73004.00
2022-07-25T06:52:38.331Z,73231.16
2022-07-25T06:55:06.484Z,73348.59
2022-07-25T06:57:33.547Z,73485.28
2022-07-25T07:00:00.331Z,73286.97
2022-07-25T07:02:27.359Z,73213.81
2022-07-25T07:04:54.096Z,73019.41
2022-07-25T07:07:21.193Z,72953.94
2022-07-25T07:09:47.949Z,73077.16
2022-07-25T07:12:14.625Z,72971.28
2022-07-25T07:14:42.015Z,73027.09
2022-07-25T07:17:08.722Z,73408.28
2022-07-25T07:19:35.459Z,73258.09
2022-07-25T07:22:02.168Z,73373.63
2022-07-25T07:24:29.042Z,73350.50
2022-07-25T07:26:55.726Z,73408.28
2022-07-25T07:29:22.495Z,73573.84
2022-07-25T07:31:49.630Z,73531.50
2022-07-25T07:34:16.837Z,73431.38
2022-07-25T07:36:43.850Z,73279.28
2022-07-25T07:39:10.755Z,73131.03
2022-07-25T07:41:37.679Z,73277.34
2022-07-25T07:44:05.602Z,73102.16
2022-07-25T07:46:32.367Z,73081.00
2022-07-25T07:48:59.222Z,72992.44
2022-07-25T07:51:25.988Z,73258.09
2022-07-25T07:54:11.482Z,73082.91
2022-07-25T07:56:39.513Z,73086.78
2022-07-25T07:59:06.570Z,73081.00
2022-07-25T08:01:34.299Z,73027.09
2022-07-25T08:04:01.002Z,73077.16
2022-07-25T08:06:28.089Z,73269.66
2022-07-25T08:08:55.289Z,73260.03
2022-07-25T08:11:22.107Z,73300.47
2022-07-25T08:13:48.955Z,73381.31
2022-07-25T08:16:16.193Z,73394.78
2022-07-25T08:18:45.930Z,73389.03
2022-07-25T08:21:15.034Z,73442.94
2022-07-25T08:23:42.223Z,73414.03
2022-07-25T08:26:08.971Z,73371.69
2022-07-25T08:28:35.718Z,73392.88
2022-07-25T08:31:02.576Z,73394.78
2022-07-25T08:33:29.420Z,73410.19
2022-07-25T08:35:58.696Z,73423.69
2022-07-25T08:38:26.934Z,73412.13
2022-07-25T08:40:58.509Z,73504.53
2022-07-25T08:43:25.802Z,73473.72
2022-07-25T08:45:54.094Z,73466.03
2022-07-25T08:48:26.243Z,73523.78
2022-07-25T08:50:57.247Z,73523.78
2022-07-25T08:53:33.537Z,73593.09
2022-07-25T08:56:05.326Z,73556.53
2022-07-25T08:58:37.431Z,73566.16
2022-07-25T09:01:04.295Z,73516.09
2022-07-25T09:03:33.864Z,73504.53
2022-07-25T09:06:00.797Z,73612.34
2022-07-25T09:08:27.541Z,73535.34
2022-07-25T09:10:54.283Z,73512.22
2022-07-25T09:13:23.764Z,73481.44
2022-07-25T09:15:53.835Z,73462.19
2022-07-25T09:18:26.518Z,73621.97
2022-07-25T09:20:59.634Z,73610.44
2022-07-25T09:23:35.472Z,73541.13
2022-07-25T09:26:12.918Z,73500.69
2022-07-25T09:28:40.815Z,73485.28
2022-07-25T09:31:09.795Z,73473.72
2022-07-25T09:33:52.089Z,73527.63
2022-07-25T09:36:18.880Z,73544.97
2022-07-25T09:39:02.539Z,73496.84
2022-07-25T09:41:41.560Z,73550.75
2022-07-25T09:44:29.783Z,73496.84
2022-07-25T09:46:59.073Z,73521.88
2022-07-25T09:49:26.788Z,73454.47
2022-07-25T09:51:55.011Z,73439.06
2022-07-25T09:54:23.032Z,73456.41
2022-07-25T09:56:49.888Z,73435.22
2022-07-25T09:59:16.635Z,73446.78
2022-07-25T10:01:58.764Z,73435.22
2022-07-25T10:04:43.756Z,73417.91
2022-07-25T10:07:14.509Z,73392.88
2022-07-25T10:09:46.351Z,73371.69
2022-07-25T10:12:15.223Z,73371.69
2022-07-25T10:14:42.057Z,73348.59
2022-07-25T10:17:09.789Z,73350.50
2022-07-25T10:19:52.922Z,73338.97
2022-07-25T10:22:39.771Z,73381.31
2022-07-25T10:25:17.988Z,73377.47
2022-07-25T10:27:50.912Z,73439.06
2022-07-25T10:30:23.654Z,73454.47
2022-07-25T10:32:58.610Z,73381.31
2022-07-25T10:35:28.435Z,73439.06
2022-07-25T10:37:57.944Z,73381.31
2022-07-25T10:40:37.261Z,73404.41
2022-07-25T10:43:18.033Z,73379.41
2022-07-25T10:45:50.973Z,73346.66
2022-07-25T10:48:38.023Z,73379.41
2022-07-25T10:51:08.472Z,73342.81
2022-07-25T10:53:47.320Z,73308.16
2022-07-25T10:56:20.603Z,73277.34
2022-07-25T10:58:56.259Z,73296.59
2022-07-25T11:01:30.455Z,73273.50
2022-07-25T11:04:00.454Z,73269.66
2022-07-25T11:06:34.632Z,73275.44
2022-07-25T11:09:04.073Z,73219.59
2022-07-25T11:11:39.826Z,73194.56
2022-07-25T11:14:18.471Z,73192.66
2022-07-25T11:16:47.032Z,73161.84
2022-07-25T11:19:21.251Z,73150.28
2022-07-25T11:21:50.962Z,73132.97
2022-07-25T11:24:18.320Z,73150.28
2022-07-25T11:26:47.363Z,73138.75
2022-07-25T11:29:25.017Z,73107.94
2022-07-25T11:31:57.261Z,73131.03
2022-07-25T11:34:27.550Z,73167.63
2022-07-25T11:36:57.220Z,73142.59
2022-07-25T11:39:29.538Z,73117.56
2022-07-25T11:42:02.749Z,73150.28
2022-07-25T11:44:45.723Z,73111.78
2022-07-25T11:47:31.018Z,73111.78
2022-07-25T11:50:02.925Z,73171.47
2022-07-25T11:52:36.552Z,73115.66
2022-07-25T11:55:08.703Z,73107.94
2022-07-25T11:57:39.385Z,73100.25
2022-07-25T12:00:21.179Z,73069.44
2022-07-25T12:02:49.925Z,73063.66
2022-07-25T12:05:23.025Z,73007.84
2022-07-25T12:07:54.870Z,73034.78
2022-07-25T12:10:32.866Z,73019.41
2022-07-25T12:13:02.486Z,73007.84
2022-07-25T12:15:32.273Z,73009.78
2022-07-25T12:18:00.111Z,73025.16
2022-07-25T12:20:31.937Z,73057.91
2022-07-25T12:23:01.929Z,73061.75
2022-07-25T12:25:31.191Z,73055.97
2022-07-25T12:27:59.810Z,73044.41
2022-07-25T12:30:28.760Z,73030.94
2022-07-25T12:32:56.854Z,73061.75
2022-07-25T12:35:23.867Z,73061.75
2022-07-25T12:37:51.262Z,73054.03
2022-07-25T12:40:18.161Z,73025.16
2022-07-25T12:42:45.662Z,73004.00
2022-07-25T12:45:14.814Z,72961.66
2022-07-25T12:47:43.573Z,72952.03
2022-07-25T12:50:10.396Z,72950.09
2022-07-25T12:52:41.406Z,72919.28
2022-07-25T12:55:10.612Z,72961.66
2022-07-25T12:57:37.736Z,72988.59
2022-07-25T13:00:07.513Z,73011.69
2022-07-25T13:02:34.318Z,73046.34
2022-07-25T13:05:01.123Z,73000.16
2022-07-25T13:07:27.947Z,72988.59
2022-07-25T13:09:54.604Z,72973.19
2022-07-25T13:12:22.964Z,72938.53
2022-07-25T13:14:50.461Z,72950.09
2022-07-25T13:17:17.402Z,72934.69
2022-07-25T13:19:44.248Z,72950.09
2022-07-25T13:22:11.081Z,72946.25
2022-07-25T13:24:39.289Z,72953.94
2022-07-25T13:27:07.233Z,72973.19
2022-07-25T13:29:34.617Z,72973.19
2022-07-25T13:32:02.004Z,72992.44
2022-07-25T13:34:28.978Z,72959.72
2022-07-25T13:36:55.742Z,72952.03
2022-07-25T13:39:22.683Z,72973.19
2022-07-25T13:41:49.927Z,72953.94
2022-07-25T13:44:17.089Z,72948.16
2022-07-25T13:46:46.338Z,72930.84
2022-07-25T13:49:13.325Z,72911.59
2022-07-25T13:51:40.112Z,72896.19
2022-07-25T13:54:07.193Z,72909.66
2022-07-25T13:56:34.011Z,72888.50
2022-07-25T13:59:03.183Z,72884.66
2022-07-25T14:01:30.590Z,72901.97
2022-07-25T14:03:57.518Z,72919.28
2022-07-25T14:06:24.241Z,72915.44
2022-07-25T14:08:51.092Z,72903.91
2022-07-25T14:11:17.939Z,72901.97
2022-07-25T14:13:45.290Z,72888.50
2022-07-25T14:16:16.406Z,72896.19
2022-07-25T14:18:43.262Z,72880.78
2022-07-25T14:21:09.969Z,72880.78
2022-07-25T14:23:36.707Z,72873.09
2022-07-25T14:26:03.644Z,72853.84
2022-07-25T14:28:30.382Z,72876.94
2022-07-25T14:30:57.160Z,72873.09
2022-07-25T14:33:23.859Z,72871.16
2022-07-25T14:35:50.698Z,72873.09
2022-07-25T14:38:17.444Z,72857.69
2022-07-25T14:40:44.483Z,72861.53
2022-07-25T14:43:11.204Z,72876.94
2022-07-25T14:45:38.009Z,72890.41
2022-07-25T14:48:07.767Z,72880.78
2022-07-25T14:50:34.845Z,72865.41
2022-07-25T14:53:01.602Z,72892.34
2022-07-25T14:55:28.372Z,72884.66
2022-07-25T14:57:55.311Z,72894.28
2022-07-25T15:00:24.894Z,72882.72
2022-07-25T15:02:54.405Z,72876.94
2022-07-25T15:05:21.136Z,72884.66
2022-07-25T15:07:48.495Z,72896.19
2022-07-25T15:10:15.290Z,72892.34
2022-07-25T15:12:42.083Z,72925.06
2022-07-25T15:15:08.986Z,72923.16
2022-07-25T15:17:35.665Z,72903.91
2022-07-25T15:20:02.416Z,72907.75
2022-07-25T15:22:29.531Z,72923.16
2022-07-25T15:27:44.185Z,72927.00
2022-07-25T15:30:11.451Z,72930.84
2022-07-25T15:32:40.114Z,72938.53
2022-07-25T15:35:07.777Z,72927.00
2022-07-25T15:37:34.904Z,72923.16
2022-07-25T15:40:04.506Z,72927.00
2022-07-25T15:42:32.963Z,72921.22
2022-07-25T15:45:30.353Z,72915.44
2022-07-25T15:47:51.032Z,72928.91
2022-07-25T15:50:18.562Z,72927.00
2022-07-25T15:52:45.388Z,72923.16
2022-07-25T15:55:12.619Z,72938.53
2022-07-25T15:57:39.945Z,72946.25
2022-07-25T16:00:08.751Z,72950.09
2022-07-25T16:02:36.292Z,72961.66
2022-07-25T16:05:03.973Z,72961.66
2022-07-25T16:07:30.734Z,72965.50
2022-07-25T16:09:57.589Z,72977.03
2022-07-25T16:12:28.711Z,72977.03
2022-07-25T16:14:55.676Z,72977.03
2022-07-25T16:17:22.752Z,72980.91
2022-07-25T16:19:49.826Z,72996.28
2022-07-25T16:22:16.595Z,73011.69
2022-07-25T16:24:43.375Z,73000.16
2022-07-25T16:27:10.158Z,72996.28
2022-07-25T16:29:37.627Z,73007.84
2022-07-25T16:32:05.552Z,73011.69
2022-07-25T16:34:33.004Z,73015.53
2022-07-25T16:37:01.116Z,73030.94
2022-07-25T16:39:27.960Z,73030.94
2022-07-25T16:41:54.989Z,73042.50
2022-07-25T16:44:26.037Z,73036.72
2022-07-25T16:46:53.706Z,73030.94
2022-07-25T16:49:20.735Z,73036.72
2022-07-25T16:51:47.798Z,73042.50
2022-07-25T16:54:14.737Z,73046.34
2022-07-25T16:56:41.520Z,73061.75
2022-07-25T16:59:11.298Z,73065.59
2022-07-25T17:01:38.320Z,73069.44
2022-07-25T17:04:05.209Z,73081.00
2022-07-25T17:06:32.028Z,73079.06
2022-07-25T17:08:59.034Z,73081.00
2022-07-25T17:11:27.514Z,73084.84
2022-07-25T17:13:54.214Z,73088.69
2022-07-25T17:16:21.032Z,73088.69
2022-07-25T17:18:47.888Z,73094.47
2022-07-25T17:21:16.789Z,73106.03
2022-07-25T17:23:43.635Z,73111.78
2022-07-25T17:26:10.663Z,73119.50
2022-07-25T17:28:37.498Z,73119.50
2022-07-25T17:31:04.723Z,73127.19
2022-07-25T17:33:31.506Z,73134.91
2022-07-25T17:36:01.289Z,73127.19
2022-07-25T17:38:32.956Z,73146.44
2022-07-25T17:41:01.750Z,73150.28
2022-07-25T17:43:28.987Z,73161.84
2022-07-25T17:45:56.725Z,73171.47
2022-07-25T17:48:23.773Z,73175.31
2022-07-25T17:50:52.536Z,73184.94
2022-07-25T17:53:19.459Z,73192.66
2022-07-25T17:55:46.519Z,73206.13
2022-07-25T17:58:13.896Z,73211.91
2022-07-25T18:00:40.771Z,73227.31
2022-07-25T18:03:07.782Z,73236.94
2022-07-25T18:05:34.949Z,73248.47
2022-07-25T18:08:03.029Z,73258.09
2022-07-25T18:10:30.631Z,73265.81
2022-07-25T18:13:00.338Z,73279.28
2022-07-25T18:15:29.550Z,73294.69
2022-07-25T18:17:56.602Z,73298.53
2022-07-25T18:20:23.326Z,73319.72
2022-07-25T18:22:50.203Z,73337.03
2022-07-25T18:25:17.211Z,73340.88
2022-07-25T18:27:46.475Z,73350.50
2022-07-25T18:30:15.049Z,73358.22
2022-07-25T18:32:42.762Z,73369.75
2022-07-25T18:35:11.183Z,73381.31
2022-07-25T18:37:38.160Z,73392.88
2022-07-25T18:40:07.198Z,73404.41
2022-07-25T18:42:34.937Z,73419.81
2022-07-25T18:45:01.678Z,73437.16
2022-07-25T18:47:32.336Z,73462.19
2022-07-25T18:49:59.616Z,73479.50
2022-07-25T18:52:27.231Z,73492.97
2022-07-25T18:54:53.930Z,73500.69
2022-07-25T18:57:20.713Z,73523.78
2022-07-25T18:59:47.887Z,73531.50
2022-07-25T19:02:14.811Z,73550.75
2022-07-25T19:04:41.618Z,73564.22
2022-07-25T19:07:09.103Z,73573.84
2022-07-25T19:09:36.212Z,73577.69
2022-07-25T19:12:03.408Z,73587.31
2022-07-25T19:14:30.879Z,73604.66
2022-07-25T19:16:58.866Z,73631.59
2022-07-25T19:19:26.946Z,73641.22
2022-07-25T19:21:53.896Z,73648.94
2022-07-25T19:24:20.887Z,73660.50
2022-07-25T19:26:48.251Z,73670.13
2022-07-25T19:29:16.785Z,73685.53
2022-07-25T19:31:44.294Z,73697.06
2022-07-25T19:34:11.633Z,73716.31
2022-07-25T19:36:41.334Z,73720.19
2022-07-25T19:39:08.174Z,73733.66
2022-07-25T19:41:34.910Z,73731.72
2022-07-25T19:44:02.547Z,73731.72
2022-07-25T19:46:33.535Z,73733.66
2022-07-25T19:49:04.910Z,73735.59
2022-07-25T19:51:35.004Z,73737.50
2022-07-25T19:54:03.726Z,73731.72
2022-07-25T19:56:31.407Z,73735.59
2022-07-25T19:58:59.762Z,73735.59
2022-07-25T20:01:32.416Z,73739.44
2022-07-25T20:04:06.373Z,73750.97
2022-07-25T20:06:33.383Z,73760.59
2022-07-25T20:09:00.268Z,73776.00
2022-07-25T20:11:27.035Z,73774.09
2022-07-25T20:13:54.269Z,73777.94
2022-07-25T20:16:21.171Z,73774.09
2022-07-25T20:18:47.965Z,73768.31
2022-07-25T20:21:17.483Z,73777.94
2022-07-25T20:23:45.256Z,73774.09
2022-07-25T20:26:12.901Z,73781.78
2022-07-25T20:28:39.777Z,73785.63
2022-07-25T20:31:06.950Z,73789.50
2022-07-25T20:33:33.704Z,73793.34
2022-07-25T20:36:00.717Z,73795.28
2022-07-25T20:38:32.370Z,73793.34
2022-07-25T20:41:00.153Z,73789.50
2022-07-25T20:43:27.165Z,73791.41
2022-07-25T20:45:57.634Z,73785.63
2022-07-25T20:48:25.327Z,73793.34
2022-07-25T20:50:52.117Z,73785.63
2022-07-25T20:53:19.846Z,73789.50
2022-07-25T20:55:47.751Z,73781.78
2022-07-25T20:58:14.572Z,73774.09
2022-07-25T21:00:42.065Z,73789.50
2022-07-25T21:03:08.907Z,73785.63
2022-07-25T21:05:37.835Z,73791.41
2022-07-25T21:08:05.487Z,73797.19
2022-07-25T21:10:32.716Z,73801.03
2022-07-25T21:12:59.468Z,73804.91
2022-07-25T21:15:30.955Z,73812.59
2022-07-25T21:17:58.473Z,73820.28
2022-07-25T21:20:25.303Z,73818.38
2022-07-25T21:22:52.252Z,73822.22
2022-07-25T21:25:18.938Z,73828.00
2022-07-25T21:27:45.867Z,73835.69
2022-07-25T21:30:12.876Z,73839.56
2022-07-25T21:32:40.581Z,73839.56
2022-07-25T21:35:07.755Z,73841.47
2022-07-25T21:37:34.636Z,73843.41
2022-07-25T21:40:01.573Z,73847.25
2022-07-25T21:42:28.326Z,73854.97
2022-07-25T21:44:56.238Z,73868.44
2022-07-25T21:47:23.081Z,73858.81
2022-07-25T21:50:08.699Z,73866.50
2022-07-25T21:52:35.486Z,73866.50
2022-07-25T21:55:03.944Z,73876.13
2022-07-25T21:57:31.517Z,73883.84
2022-07-25T21:59:58.625Z,73887.69
2022-07-25T22:02:25.600Z,73901.16
2022-07-25T22:04:52.517Z,73908.88
2022-07-25T22:07:19.289Z,73918.50
2022-07-25T22:09:46.090Z,73926.19
2022-07-25T22:12:12.859Z,73947.38
2022-07-25T22:14:39.577Z,73949.31
2022-07-25T22:17:06.456Z,73962.78
2022-07-25T22:19:33.724Z,73962.78
2022-07-25T22:22:00.598Z,73974.34
2022-07-25T22:24:27.488Z,73978.19
2022-07-25T22:26:54.336Z,73980.13
2022-07-25T22:29:21.074Z,73974.34
2022-07-25T22:31:48.008Z,73978.19
2022-07-25T22:34:14.733Z,73980.13
2022-07-25T22:36:43.704Z,73980.13
2022-07-25T22:39:11.726Z,73978.19
2022-07-25T22:41:38.967Z,73985.91
2022-07-25T22:44:06.032Z,73978.19
2022-07-25T22:46:34.577Z,73976.25
2022-07-25T22:49:01.896Z,73976.25
2022-07-25T22:51:29.389Z,73976.25
2022-07-25T22:53:57.921Z,73970.50
2022-07-25T22:56:25.401Z,73970.50
2022-07-25T22:58:52.571Z,73962.78
2022-07-25T23:01:19.887Z,73962.78
2022-07-25T23:03:49.821Z,73955.09
2022-07-25T23:06:17.849Z,73955.09
2022-07-25T23:08:44.701Z,73947.38
2022-07-25T23:11:11.450Z,73945.47
2022-07-25T23:13:38.169Z,73951.22
2022-07-25T23:16:10.497Z,73958.94
2022-07-25T23:18:38.129Z,73958.94
2022-07-25T23:21:05.458Z,73960.84
2022-07-25T23:23:32.301Z,73962.78
2022-07-25T23:25:59.268Z,73960.84
2022-07-25T23:28:26.076Z,73962.78
2022-07-25T23:30:53.036Z,73970.50
2022-07-25T23:33:21.983Z,73974.34
2022-07-25T23:35:53.249Z,73978.19
2022-07-25T23:38:20.147Z,73985.91
2022-07-25T23:40:46.916Z,73995.53
2022-07-25T23:43:13.735Z,73999.38
2022-07-25T23:45:44.424Z,74009.00
2022-07-25T23:48:14.974Z,74024.41
2022-07-25T23:50:41.702Z,74028.25
2022-07-25T23:53:11.449Z,74047.50
2022-07-25T23:55:38.182Z,74082.16
2022-07-25T23:58:04.912Z,74109.13
